Time;durP1;ratioP1;P1;durP2;ratioP2;P2;SDS_P1;SDS_P2;PMS_P1;PMS_P2;Temp;Humidity;BMP_temperature;BMP_pressure;BME280_temperature;BME280_humidity;BME280_pressure;Samples;Min_cycle;Max_cycle;Signal;HPM_P1;HPM_P2
2021/08/08 00:02:19;;;;;;;22.05;5.90;;;;;;;13.94;94.43;100192.63;5032861;28;20466;-72
2021/08/08 00:04:44;;;;;;;19.75;6.05;;;;;;;13.98;94.61;100190.44;5017152;28;20083;-71
2021/08/08 00:07:09;;;;;;;21.38;5.60;;;;;;;14.05;94.55;100191.41;5036423;28;20091;-74
2021/08/08 00:09:35;;;;;;;25.80;4.78;;;;;;;14.13;94.32;100196.69;5036799;28;20103;-73
2021/08/08 00:12:00;;;;;;;23.42;5.60;;;;;;;14.18;94.21;100186.28;5036249;28;20052;-74
2021/08/08 00:14:26;;;;;;;32.25;6.03;;;;;;;14.23;94.29;100199.13;5018886;28;20037;-74
2021/08/08 00:16:51;;;;;;;23.13;6.45;;;;;;;14.25;94.36;100197.94;5036628;28;20037;-73
2021/08/08 00:19:17;;;;;;;33.83;7.28;;;;;;;14.35;94.29;100202.22;5018825;28;20057;-73
2021/08/08 00:21:42;;;;;;;26.27;6.47;;;;;;;14.46;94.14;100210.66;5036808;28;20108;-73
2021/08/08 00:24:07;;;;;;;24.25;6.97;;;;;;;14.54;94.14;100204.41;5036151;28;20384;-73
2021/08/08 00:26:33;;;;;;;24.80;7.55;;;;;;;14.61;94.31;100205.38;5036468;28;20450;-74
2021/08/08 00:28:59;;;;;;;27.63;7.30;;;;;;;14.67;93.76;100208.34;5035978;28;20039;-73
2021/08/08 00:31:24;;;;;;;26.08;7.28;;;;;;;14.73;94.02;100211.09;5036188;28;20112;-73
2021/08/08 00:33:53;;;;;;;30.58;8.00;;;;;;;14.78;93.77;100211.41;5036050;28;20112;-74
2021/08/08 00:36:20;;;;;;;37.58;7.70;;;;;;;14.84;93.86;100211.69;5035583;28;20030;-74
2021/08/08 00:38:45;;;;;;;27.65;7.47;;;;;;;14.89;93.79;100220.03;5018222;28;20055;-74
2021/08/08 00:41:11;;;;;;;22.75;6.65;;;;;;;14.92;92.77;100220.47;5036136;28;20463;-74
2021/08/08 00:43:36;;;;;;;20.88;6.78;;;;;;;14.91;92.22;100213.47;5035880;28;20033;-74
2021/08/08 00:46:01;;;;;;;20.98;6.97;;;;;;;14.88;91.87;100215.66;5017989;28;20053;-74
2021/08/08 00:48:27;;;;;;;21.00;7.07;;;;;;;14.87;91.83;100216.66;5036068;28;20116;-74
2021/08/08 00:50:52;;;;;;;18.02;7.72;;;;;;;14.79;92.29;100213.09;5035740;28;20381;-75
2021/08/08 00:53:18;;;;;;;14.57;6.70;;;;;;;14.78;91.70;100227.47;5036142;28;20038;-74
2021/08/08 00:55:44;;;;;;;24.17;7.95;;;;;;;14.80;91.88;100249.53;5035845;28;20088;-75
2021/08/08 00:58:09;;;;;;;58.60;10.20;;;;;;;14.77;92.79;100251.75;5035910;28;20044;-74
2021/08/08 01:00:37;;;;;;;22.77;6.78;;;;;;;14.66;92.64;100230.75;5018139;28;20483;-75
2021/08/08 01:03:11;;;;;;;27.08;8.90;;;;;;;14.57;93.21;100228.13;5035356;28;20025;-71
2021/08/08 01:05:43;;;;;;;34.38;10.13;;;;;;;14.57;94.17;100230.81;5035391;28;20458;-73
2021/08/08 01:08:15;;;;;;;33.55;9.80;;;;;;;14.59;94.37;100233.31;5036019;28;20489;-72
2021/08/08 01:10:41;;;;;;;30.58;9.40;;;;;;;14.60;94.17;100253.69;5017999;28;20084;-73
2021/08/08 01:13:08;;;;;;;38.92;11.15;;;;;;;14.59;94.20;100249.38;5035244;28;20041;-72
2021/08/08 01:15:33;;;;;;;29.60;10.52;;;;;;;14.60;94.27;100267.06;5034722;28;20469;-73
2021/08/08 01:18:00;;;;;;;27.80;9.25;;;;;;;14.59;94.08;100252.03;5035463;28;20033;-74
2021/08/08 01:20:27;;;;;;;33.00;10.25;;;;;;;14.55;94.18;100258.75;5035768;28;20037;-73
2021/08/08 01:22:56;;;;;;;28.42;10.00;;;;;;;14.53;94.22;100263.47;5035214;28;20117;-73
2021/08/08 01:25:23;;;;;;;36.50;10.35;;;;;;;14.50;94.09;100267.34;5017601;28;20033;-72
2021/08/08 01:27:50;;;;;;;34.38;8.75;;;;;;;14.47;93.80;100265.00;5035599;28;20099;-72
2021/08/08 01:30:16;;;;;;;26.27;8.70;;;;;;;14.42;93.09;100268.22;5034905;28;20030;-73
2021/08/08 01:32:43;;;;;;;30.77;7.60;;;;;;;14.40;92.36;100274.75;5034790;28;20462;-71
2021/08/08 01:35:09;;;;;;;24.85;7.55;;;;;;;14.39;91.75;100284.66;5035297;28;20038;-71
2021/08/08 01:37:35;;;;;;;29.58;8.20;;;;;;;14.38;92.48;100280.28;5035600;28;20033;-70
2021/08/08 01:40:09;;;;;;;23.10;7.57;;;;;;;14.36;91.93;100282.31;5035254;28;20079;-71
2021/08/08 01:42:38;;;;;;;26.40;7.90;;;;;;;14.29;91.69;100287.53;5034482;28;20500;-71
2021/08/08 01:45:04;;;;;;;27.77;8.50;;;;;;;14.23;92.55;100290.94;5034733;28;20083;-71
2021/08/08 01:47:34;;;;;;;31.42;8.00;;;;;;;14.20;92.06;100291.28;5035054;28;20042;-72
2021/08/08 01:50:01;;;;;;;20.17;6.68;;;;;;;14.21;91.54;100295.63;5034869;28;20056;-72
2021/08/08 01:52:27;;;;;;;19.70;6.95;;;;;;;14.16;92.10;100297.16;5016809;28;20037;-71
2021/08/08 01:54:54;;;;;;;26.38;6.75;;;;;;;14.15;92.01;100306.19;5017104;28;20349;-72
2021/08/08 01:57:19;;;;;;;24.05;6.93;;;;;;;14.11;92.30;100311.88;5034630;28;20032;-72
2021/08/08 01:59:45;;;;;;;24.83;8.75;;;;;;;14.09;92.37;100310.38;5034769;28;20029;-72
2021/08/08 02:02:15;;;;;;;25.00;7.38;;;;;;;14.11;92.49;100314.56;5034277;28;20033;-71
2021/08/08 02:04:42;;;;;;;19.38;6.10;;;;;;;14.13;92.13;100314.38;5034716;28;20033;-71
2021/08/08 02:07:15;;;;;;;20.20;6.28;;;;;;;14.14;92.01;100321.41;5034358;28;20263;-72
2021/08/08 02:09:42;;;;;;;25.58;7.30;;;;;;;14.15;92.37;100324.91;5017004;28;20148;-72
2021/08/08 02:12:08;;;;;;;35.53;8.63;;;;;;;14.15;92.70;100324.91;5034673;28;20033;-72
2021/08/08 02:14:34;;;;;;;22.58;6.95;;;;;;;14.14;92.66;100334.78;5034820;28;20040;-74
2021/08/08 02:17:00;;;;;;;24.38;6.75;;;;;;;14.13;92.61;100333.13;5034063;28;20034;-71
2021/08/08 02:19:25;;;;;;;21.05;6.25;;;;;;;14.12;92.35;100331.44;5033986;28;20033;-71
2021/08/08 02:21:51;;;;;;;23.25;6.85;;;;;;;14.12;92.52;100339.47;5033975;28;20060;-71
2021/08/08 02:24:17;;;;;;;21.60;6.88;;;;;;;14.10;92.22;100345.00;5033908;28;20033;-72
2021/08/08 02:26:43;;;;;;;24.65;6.43;;;;;;;14.12;92.09;100347.50;5033025;28;20033;-72
2021/08/08 02:29:08;;;;;;;21.25;6.03;;;;;;;14.13;91.78;100353.69;5034008;28;20029;-71
2021/08/08 02:31:38;;;;;;;23.70;6.10;;;;;;;14.13;90.98;100351.03;5033691;28;20037;-73
2021/08/08 02:34:05;;;;;;;24.45;7.00;;;;;;;14.08;91.02;100356.91;5033855;28;20041;-73
2021/08/08 02:36:30;;;;;;;27.70;5.88;;;;;;;14.04;91.40;100361.75;5033733;28;20474;-74
2021/08/08 02:38:56;;;;;;;19.73;5.75;;;;;;;14.03;90.81;100368.13;5033833;28;20038;-70
2021/08/08 02:41:21;;;;;;;18.35;5.82;;;;;;;14.00;91.01;100365.78;5015980;28;20087;-73
2021/08/08 02:43:46;;;;;;;29.60;6.45;;;;;;;13.98;90.95;100372.31;5033585;28;20045;-73
2021/08/08 02:46:12;;;;;;;17.83;5.55;;;;;;;14.00;90.83;100367.63;5033738;28;20090;-73
2021/08/08 02:48:38;;;;;;;22.92;5.32;;;;;;;14.00;91.19;100381.84;5033763;28;20484;-73
2021/08/08 02:51:03;;;;;;;15.88;5.80;;;;;;;13.99;91.07;100376.63;5034114;28;20038;-73
2021/08/08 02:53:29;;;;;;;19.48;6.18;;;;;;;14.01;91.06;100388.84;5033316;28;20040;-74
2021/08/08 02:55:54;;;;;;;24.27;5.63;;;;;;;13.99;90.52;100384.66;5034026;28;20448;-74
2021/08/08 02:58:19;;;;;;;27.67;5.40;;;;;;;14.01;90.40;100385.34;5033658;28;20040;-74
2021/08/08 03:00:45;;;;;;;19.67;6.13;;;;;;;14.01;89.97;100386.16;5034167;28;20030;-75
2021/08/08 03:03:10;;;;;;;13.93;4.97;;;;;;;13.97;89.58;100392.84;5033653;28;20069;-74
2021/08/08 03:05:36;;;;;;;19.67;4.97;;;;;;;13.98;89.57;100391.03;5033463;28;20179;-74
2021/08/08 03:08:02;;;;;;;16.88;5.18;;;;;;;13.93;88.94;100391.56;5033419;28;20050;-74
2021/08/08 03:10:28;;;;;;;24.33;5.90;;;;;;;13.86;89.82;100395.91;5033641;28;20107;-73
2021/08/08 03:12:53;;;;;;;15.45;5.35;;;;;;;13.77;89.21;100391.59;5015755;28;20144;-75
2021/08/08 03:15:19;;;;;;;16.65;4.57;;;;;;;13.78;87.41;100396.78;5033210;28;20033;-74
2021/08/08 03:17:45;;;;;;;16.30;4.75;;;;;;;13.78;87.72;100401.25;5033716;28;20112;-74
2021/08/08 03:20:10;;;;;;;12.98;4.40;;;;;;;13.71;87.94;100406.47;5033562;28;20116;-74
2021/08/08 03:22:36;;;;;;;14.02;5.03;;;;;;;13.69;88.12;100414.66;5033137;28;20037;-74
2021/08/08 03:25:01;;;;;;;16.33;4.40;;;;;;;13.62;87.84;100411.00;5033399;28;20076;-75
2021/08/08 03:27:27;;;;;;;13.45;4.07;;;;;;;13.67;87.30;100418.50;5033604;28;20120;-73
2021/08/08 03:29:52;;;;;;;19.90;4.93;;;;;;;13.63;88.27;100420.69;5033729;28;20465;-75
2021/08/08 03:32:18;;;;;;;16.52;5.03;;;;;;;13.58;88.51;100420.34;5033701;28;20508;-74
2021/08/08 03:34:43;;;;;;;19.50;4.72;;;;;;;13.52;88.27;100424.53;5033223;28;20030;-74
2021/08/08 03:37:09;;;;;;;20.15;5.68;;;;;;;13.45;89.42;100428.03;5015705;28;20057;-74
2021/08/08 03:39:34;;;;;;;17.25;5.05;;;;;;;13.46;89.04;100433.22;5036831;28;20083;-74
2021/08/08 03:42:00;;;;;;;16.33;4.75;;;;;;;13.57;87.97;100435.56;5036987;28;20038;-73
2021/08/08 03:44:25;;;;;;;13.88;4.47;;;;;;;13.67;87.59;100440.72;5019026;28;20036;-73
2021/08/08 03:46:51;;;;;;;13.52;4.72;;;;;;;13.66;87.56;100441.75;5036747;28;20485;-73
2021/08/08 03:49:18;;;;;;;12.43;4.53;;;;;;;13.63;88.07;100442.06;5019105;28;20034;-74
2021/08/08 03:51:44;;;;;;;18.85;5.43;;;;;;;13.57;89.14;100448.09;5037612;28;20037;-74
2021/08/08 03:54:09;;;;;;;17.25;5.40;;;;;;;13.54;88.80;100441.25;5036525;28;20033;-75
2021/08/08 03:56:35;;;;;;;22.10;5.38;;;;;;;13.57;89.02;100450.78;5036794;28;20029;-74
2021/08/08 03:59:00;;;;;;;13.35;5.78;;;;;;;13.54;89.31;100446.59;5036723;28;20029;-74
2021/08/08 04:01:26;;;;;;;17.58;5.60;;;;;;;13.56;89.66;100449.09;5037038;28;20108;-74
2021/08/08 04:03:51;;;;;;;13.90;4.55;;;;;;;13.60;89.73;100455.78;5036694;28;20029;-75
2021/08/08 04:06:16;;;;;;;15.93;4.70;;;;;;;13.63;90.15;100457.25;5036415;28;20042;-74
2021/08/08 04:08:42;;;;;;;18.65;4.70;;;;;;;13.70;88.89;100456.44;5018906;28;20038;-74
2021/08/08 04:11:14;;;;;;;20.05;4.25;;;;;;;13.71;89.41;100455.41;5036593;28;20037;-73
2021/08/08 04:13:40;;;;;;;21.55;5.00;;;;;;;13.74;89.11;100460.44;5036410;28;20033;-74
2021/08/08 04:16:06;;;;;;;25.77;5.22;;;;;;;13.73;89.41;100458.78;5036380;28;20041;-73
2021/08/08 04:18:31;;;;;;;18.33;4.70;;;;;;;13.82;88.91;100459.56;5036322;28;20095;-74
2021/08/08 04:20:57;;;;;;;18.95;4.60;;;;;;;13.85;88.92;100477.13;5036343;28;20034;-74
2021/08/08 04:23:22;;;;;;;16.02;4.60;;;;;;;13.89;87.93;100460.56;5036307;28;20385;-74
2021/08/08 04:25:48;;;;;;;21.52;4.90;;;;;;;13.96;88.05;100470.59;5036329;28;20121;-74
2021/08/08 04:28:13;;;;;;;19.80;4.80;;;;;;;13.98;87.43;100469.41;5036723;28;20037;-75
2021/08/08 04:30:38;;;;;;;17.35;4.25;;;;;;;14.03;86.63;100468.91;5036611;28;20030;-75
2021/08/08 04:33:04;;;;;;;19.80;4.25;;;;;;;14.03;87.19;100472.44;5036695;28;20037;-75
2021/08/08 04:35:30;;;;;;;16.92;4.30;;;;;;;14.06;86.33;100480.13;5036041;28;20458;-74
2021/08/08 04:37:56;;;;;;;20.27;3.90;;;;;;;14.05;86.74;100474.94;5036213;28;20512;-75
2021/08/08 04:40:22;;;;;;;18.88;3.92;;;;;;;14.02;86.68;100486.81;5036024;28;20037;-74
2021/08/08 04:42:47;;;;;;;21.73;4.47;;;;;;;13.93;86.68;100488.66;5018012;28;20172;-74
2021/08/08 04:45:12;;;;;;;20.98;4.45;;;;;;;13.84;86.85;100488.81;5035566;28;20098;-75
2021/08/08 04:47:38;;;;;;;13.68;3.45;;;;;;;13.84;86.35;100505.72;5035467;28;20044;-74
2021/08/08 04:50:04;;;;;;;18.27;3.80;;;;;;;13.87;85.25;100499.22;5034861;28;20130;-75
2021/08/08 04:52:37;;;;;;;26.42;4.05;;;;;;;13.86;85.18;100502.88;5035779;28;20035;-74
2021/08/08 04:55:03;;;;;;;20.25;4.65;;;;;;;13.84;86.29;100502.19;5035611;28;20030;-74
2021/08/08 04:57:28;;;;;;;20.52;4.38;;;;;;;13.81;85.60;100498.03;5035921;28;20046;-74
2021/08/08 04:59:54;;;;;;;16.90;3.95;;;;;;;13.85;84.57;100498.53;5035487;28;20034;-73
2021/08/08 05:02:20;;;;;;;14.63;3.70;;;;;;;13.91;84.41;100490.69;5035933;28;20088;-73
2021/08/08 05:04:45;;;;;;;23.30;4.70;;;;;;;13.94;84.81;100497.50;5018142;28;20102;-74
2021/08/08 05:07:11;;;;;;;15.65;3.28;;;;;;;14.02;83.86;100496.69;5035319;28;20112;-74
2021/08/08 05:09:36;;;;;;;17.05;4.13;;;;;;;14.09;83.99;100503.84;5018122;28;20033;-74
2021/08/08 05:12:01;;;;;;;18.63;3.60;;;;;;;14.17;83.81;100499.50;5036221;28;20116;-74
2021/08/08 05:14:28;;;;;;;22.80;4.00;;;;;;;14.31;83.26;100500.63;5035707;28;20052;-74
2021/08/08 05:16:54;;;;;;;18.85;4.00;;;;;;;14.40;82.56;100503.06;5035171;28;20041;-74
2021/08/08 05:19:19;;;;;;;20.05;3.83;;;;;;;14.49;82.63;100506.56;5035642;28;20037;-73
2021/08/08 05:21:45;;;;;;;24.77;4.10;;;;;;;14.52;82.90;100502.72;5035393;28;20033;-74
2021/08/08 05:24:10;;;;;;;27.40;4.47;;;;;;;14.51;84.11;100515.28;5017747;28;20141;-74
2021/08/08 05:26:35;;;;;;;19.67;4.00;;;;;;;14.56;82.78;100510.22;5017462;28;20041;-74
2021/08/08 05:29:01;;;;;;;22.85;4.45;;;;;;;14.58;82.81;100513.56;5017269;28;20037;-74
2021/08/08 05:31:26;;;;;;;22.50;4.18;;;;;;;14.60;83.27;100519.59;5034778;28;20041;-74
2021/08/08 05:33:51;;;;;;;29.30;5.28;;;;;;;14.58;84.75;100518.91;5035199;28;20068;-73
2021/08/08 05:36:17;;;;;;;20.05;4.45;;;;;;;14.42;86.31;100517.16;5034857;28;20069;-74
2021/08/08 05:38:42;;;;;;;25.88;4.90;;;;;;;14.24;87.22;100522.72;5034856;28;20033;-73
2021/08/08 05:41:07;;;;;;;25.95;5.25;;;;;;;14.14;87.66;100524.75;5034880;28;20036;-73
2021/08/08 05:43:33;;;;;;;31.90;4.85;;;;;;;14.08;87.95;100526.25;5034700;28;20083;-73
2021/08/08 05:45:58;;;;;;;33.38;5.78;;;;;;;14.03;88.87;100525.06;5017379;28;20443;-73
2021/08/08 05:48:24;;;;;;;39.72;6.10;;;;;;;13.97;89.65;100531.09;5034780;28;20041;-73
2021/08/08 05:50:50;;;;;;;38.70;5.97;;;;;;;13.97;89.48;100534.59;5034478;28;20057;-72
2021/08/08 05:53:15;;;;;;;36.72;6.32;;;;;;;14.00;89.80;100541.47;5034754;28;20458;-73
2021/08/08 05:55:45;;;;;;;33.60;4.65;;;;;;;14.04;88.37;100542.81;5034530;28;20116;-74
2021/08/08 05:58:11;;;;;;;30.05;5.53;;;;;;;14.13;88.08;100549.81;5034491;28;20022;-73
2021/08/08 06:00:36;;;;;;;23.65;4.82;;;;;;;14.11;87.76;100544.63;5034698;28;20025;-73
2021/08/08 06:03:11;;;;;;;38.17;6.35;;;;;;;14.15;88.16;100553.16;5033688;28;20044;-72
2021/08/08 06:05:38;;;;;;;29.48;4.93;;;;;;;14.16;87.79;100557.50;5034262;28;20116;-72
2021/08/08 06:08:04;;;;;;;42.35;6.57;;;;;;;14.22;87.31;100566.69;5034624;28;20124;-73
2021/08/08 06:10:30;;;;;;;30.23;5.72;;;;;;;14.27;85.89;100567.88;5033917;28;20393;-73
2021/08/08 06:12:56;;;;;;;31.85;5.65;;;;;;;14.32;87.07;100578.06;5034019;28;20037;-73
2021/08/08 06:15:22;;;;;;;26.55;4.47;;;;;;;14.36;87.62;100573.19;5034455;28;20039;-73
2021/08/08 06:17:47;;;;;;;40.15;5.22;;;;;;;14.46;85.17;100574.69;5016368;28;20033;-72
2021/08/08 06:20:13;;;;;;;38.53;5.65;;;;;;;14.52;84.99;100591.06;5034089;28;20025;-73
2021/08/08 06:22:38;;;;;;;30.02;4.97;;;;;;;14.59;83.37;100584.03;5034012;28;20417;-72
2021/08/08 06:25:04;;;;;;;32.97;5.28;;;;;;;14.53;86.12;100585.53;5034188;28;20060;-74
2021/08/08 06:27:30;;;;;;;34.10;4.72;;;;;;;14.55;83.26;100588.03;5034544;28;20440;-73
2021/08/08 06:29:55;;;;;;;20.65;3.95;;;;;;;14.71;82.93;100593.38;5033960;28;20033;-73
2021/08/08 06:32:20;;;;;;;26.88;4.28;;;;;;;14.95;82.96;100602.34;5015911;28;20033;-72
2021/08/08 06:34:46;;;;;;;34.13;5.95;;;;;;;15.24;84.96;100600.84;5033942;28;20037;-73
2021/08/08 06:37:11;;;;;;;33.47;5.03;;;;;;;15.40;84.78;100603.44;5033615;28;20386;-72
2021/08/08 06:39:37;;;;;;;36.95;5.82;;;;;;;15.44;85.16;100610.13;5033844;28;20466;-72
2021/08/08 06:42:02;;;;;;;37.45;5.70;;;;;;;15.45;84.81;100619.00;5033876;28;20111;-72
2021/08/08 06:44:28;;;;;;;34.30;6.40;;;;;;;15.43;83.67;100616.50;5033733;28;20430;-72
2021/08/08 06:46:55;;;;;;;33.25;5.90;;;;;;;15.49;84.74;100628.38;5034147;28;20029;-73
2021/08/08 06:49:20;;;;;;;31.17;6.78;;;;;;;15.44;85.21;100625.41;5033723;28;20033;-72
2021/08/08 06:51:46;;;;;;;33.28;5.93;;;;;;;15.49;84.45;100631.06;5033799;28;20034;-72
2021/08/08 06:54:12;;;;;;;31.17;5.55;;;;;;;15.47;85.10;100644.63;5034033;28;20040;-73
2021/08/08 06:56:38;;;;;;;32.53;5.75;;;;;;;15.55;84.44;100640.25;5033409;28;20037;-73
2021/08/08 06:59:04;;;;;;;27.33;5.70;;;;;;;15.66;83.34;100639.84;5033579;28;20040;-73
2021/08/08 07:01:29;;;;;;;29.83;5.55;;;;;;;15.72;83.17;100657.06;5016751;28;20116;-72
2021/08/08 07:03:54;;;;;;;34.63;5.97;;;;;;;15.73;81.59;100650.69;5034207;28;20489;-73
2021/08/08 07:06:20;;;;;;;29.40;5.50;;;;;;;15.73;80.93;100658.75;5037276;28;20121;-73
2021/08/08 07:08:46;;;;;;;38.45;6.07;;;;;;;15.69;82.55;100655.59;5037344;28;20050;-72
2021/08/08 07:11:11;;;;;;;27.05;5.90;;;;;;;15.55;83.40;100653.66;5035060;28;20397;-74
2021/08/08 07:13:40;;;;;;;26.67;5.40;;;;;;;15.48;82.71;100665.09;5036325;28;20120;-72
2021/08/08 07:16:07;;;;;;;42.67;6.80;;;;;;;15.50;84.52;100663.06;5038458;28;20445;-71
2021/08/08 07:18:32;;;;;;;29.30;5.85;;;;;;;15.61;81.44;100669.03;5037541;28;20483;-71
2021/08/08 07:20:58;;;;;;;24.95;5.07;;;;;;;15.80;81.44;100676.66;5037448;28;20121;-72
2021/08/08 07:23:23;;;;;;;23.95;4.60;;;;;;;16.07;79.90;100676.31;5003325;28;20029;-72
2021/08/08 07:25:49;;;;;;;23.15;5.22;;;;;;;16.02;77.99;100674.19;5037381;28;20496;-72
2021/08/08 07:28:14;;;;;;;28.55;6.03;;;;;;;15.86;80.98;100675.13;5037420;28;20068;-71
2021/08/08 07:30:39;;;;;;;30.52;5.20;;;;;;;15.69;81.11;100683.22;5019529;28;20037;-71
2021/08/08 07:33:05;;;;;;;29.70;6.15;;;;;;;15.63;82.25;100692.00;5037212;28;20116;-71
2021/08/08 07:35:30;;;;;;;34.92;5.75;;;;;;;15.81;82.89;100690.94;5037112;28;20034;-71
2021/08/08 07:37:55;;;;;;;33.05;5.82;;;;;;;15.92;81.83;100695.03;5037132;28;20138;-72
2021/08/08 07:40:21;;;;;;;19.40;4.47;;;;;;;15.93;77.75;100692.19;5036884;28;20080;-72
2021/08/08 07:42:48;;;;;;;38.90;6.03;;;;;;;15.95;78.80;100692.00;5019258;28;20148;-71
2021/08/08 07:45:14;;;;;;;29.45;5.43;;;;;;;16.16;79.17;100708.28;5036880;28;20040;-70
2021/08/08 07:47:40;;;;;;;19.75;4.93;;;;;;;16.30;78.06;100714.72;5036983;28;20099;-74
2021/08/08 07:50:05;;;;;;;19.98;5.32;;;;;;;15.89;79.92;100712.31;5036731;28;20446;-75
2021/08/08 07:52:31;;;;;;;25.42;6.45;;;;;;;15.29;80.71;100705.72;5019691;28;20096;-75
2021/08/08 07:54:56;;;;;;;31.60;6.43;;;;;;;14.96;83.33;100705.81;5036426;28;20040;-74
2021/08/08 07:57:22;;;;;;;23.85;6.03;;;;;;;14.60;82.98;100708.81;5036432;28;20057;-75
2021/08/08 07:59:47;;;;;;;27.80;7.10;;;;;;;14.48;85.05;100721.75;5036955;28;20056;-75
2021/08/08 08:02:12;;;;;;;33.97;7.40;;;;;;;14.29;86.59;100721.06;5036639;28;20038;-73
2021/08/08 08:04:38;;;;;;;31.52;7.78;;;;;;;14.18;87.18;100715.19;5036341;28;20029;-73
2021/08/08 08:07:03;;;;;;;32.00;7.03;;;;;;;14.06;87.89;100722.69;5017909;28;20458;-73
2021/08/08 08:09:28;;;;;;;40.30;8.95;;;;;;;14.00;89.01;100721.53;5036059;28;20096;-73
2021/08/08 08:11:54;;;;;;;37.17;9.15;;;;;;;13.95;88.83;100712.31;5018402;28;20026;-74
2021/08/08 08:14:20;;;;;;;40.28;9.02;;;;;;;14.02;88.88;100722.19;5036458;28;20029;-73
2021/08/08 08:16:45;;;;;;;28.88;7.28;;;;;;;14.40;89.15;100732.44;5036329;28;20033;-74
2021/08/08 08:19:10;;;;;;;38.90;7.68;;;;;;;14.76;87.83;100724.94;5036310;28;20527;-76
2021/08/08 08:21:36;;;;;;;39.45;7.57;;;;;;;15.09;85.90;100734.75;5018809;28;20061;-74
2021/08/08 08:24:01;;;;;;;27.75;8.00;;;;;;;15.14;85.95;100740.44;5034797;28;20040;-72
2021/08/08 08:26:26;;;;;;;27.20;5.93;;;;;;;15.03;84.81;100730.91;5035571;28;20048;-73
2021/08/08 08:28:52;;;;;;;31.52;6.65;;;;;;;14.90;85.37;100747.50;5035892;28;20401;-74
2021/08/08 08:31:17;;;;;;;32.15;7.13;;;;;;;14.86;86.54;100734.63;5036024;28;20355;-74
2021/08/08 08:33:42;;;;;;;27.75;5.53;;;;;;;14.89;84.95;100743.16;5018101;28;20342;-73
2021/08/08 08:36:08;;;;;;;33.15;6.38;;;;;;;14.99;84.54;100746.50;5036167;28;20033;-73
2021/08/08 08:38:33;;;;;;;30.02;7.20;;;;;;;15.05;85.47;100754.84;5036241;28;20116;-74
2021/08/08 08:41:03;;;;;;;26.05;6.18;;;;;;;14.99;85.29;100745.66;5036270;28;20172;-74
2021/08/08 08:43:30;;;;;;;30.73;6.07;;;;;;;14.93;82.99;100751.69;5036201;28;20136;-73
2021/08/08 08:45:56;;;;;;;30.02;6.32;;;;;;;14.85;84.13;100754.38;5035609;28;20030;-74
2021/08/08 08:48:23;;;;;;;30.90;6.65;;;;;;;14.86;86.25;100764.91;5035403;28;20401;-74
2021/08/08 08:50:53;;;;;;;38.85;5.32;;;;;;;14.94;85.11;100759.56;5035923;28;20037;-74
2021/08/08 08:53:20;;;;;;;34.25;7.60;;;;;;;15.17;83.95;100745.44;5035115;28;20038;-74
2021/08/08 08:55:45;;;;;;;28.27;5.85;;;;;;;15.33;81.20;100756.13;5035216;28;20030;-72
2021/08/08 08:58:11;;;;;;;36.03;7.78;;;;;;;15.45;83.09;100750.38;5035149;28;20029;-74
2021/08/08 09:00:36;;;;;;;19.17;5.30;;;;;;;15.63;82.40;100752.81;5036030;28;20029;-74
2021/08/08 09:03:02;;;;;;;25.83;5.32;;;;;;;15.88;80.91;100752.75;5035795;28;20092;-77
2021/08/08 09:05:28;;;;;;;26.42;5.18;;;;;;;16.12;78.10;100754.44;5035032;28;20030;-73
2021/08/08 09:07:54;;;;;;;20.67;4.82;;;;;;;16.35;78.02;100759.84;5035552;28;20049;-74
2021/08/08 09:10:22;;;;;;;25.25;4.63;;;;;;;16.81;76.92;100757.09;5016854;28;20052;-74
2021/08/08 09:13:02;;;;;;;23.17;5.22;;;;;;;17.68;73.23;100771.81;5035095;28;20525;-75
2021/08/08 09:15:38;;;;;;;19.58;4.53;;;;;;;18.58;69.70;100771.56;5034659;28;20482;-74
2021/08/08 09:18:18;;;;;;;14.57;4.13;;;;;;;19.68;64.67;100766.53;5035136;28;20033;-73
2021/08/08 09:20:45;;;;;;;22.70;4.80;;;;;;;19.69;63.66;100762.78;5035498;28;20033;-74
2021/08/08 09:23:11;;;;;;;20.35;4.75;;;;;;;19.16;64.54;100766.03;5034779;28;20189;-74
2021/08/08 09:25:37;;;;;;;25.10;4.38;;;;;;;19.86;64.26;100774.09;5034796;28;20457;-75
2021/08/08 09:28:11;;;;;;;21.13;4.35;;;;;;;19.86;63.88;100779.50;5035021;28;20033;-74
2021/08/08 09:30:41;;;;;;;22.98;5.10;;;;;;;19.56;62.45;100785.97;5034933;28;20026;-73
2021/08/08 09:33:09;;;;;;;15.82;4.00;;;;;;;19.10;62.63;100793.78;5035360;28;20494;-73
2021/08/08 09:35:37;;;;;;;19.90;4.47;;;;;;;18.72;62.85;100792.22;5034257;28;20033;-73
2021/08/08 09:38:07;;;;;;;25.58;5.05;;;;;;;18.38;67.12;100795.63;5017061;28;20037;-74
2021/08/08 09:40:36;;;;;;;22.90;4.60;;;;;;;18.33;67.14;100801.56;5034721;28;20029;-74
2021/08/08 09:43:05;;;;;;;16.85;4.18;;;;;;;18.42;63.83;100807.66;5034455;28;20478;-76
2021/08/08 09:45:39;;;;;;;18.60;3.95;;;;;;;18.42;64.49;100804.97;5034260;28;20528;-75
2021/08/08 09:48:05;;;;;;;21.45;4.18;;;;;;;18.40;64.53;100805.16;5034856;28;20044;-76
2021/08/08 09:50:33;;;;;;;16.75;4.43;;;;;;;18.39;65.00;100799.97;5034164;28;20052;-73
2021/08/08 09:53:01;;;;;;;23.48;4.20;;;;;;;18.99;63.61;100801.38;5034217;28;20065;-74
2021/08/08 09:55:27;;;;;;;18.60;4.03;;;;;;;19.25;59.21;100812.56;5034805;28;20434;-74
2021/08/08 09:57:54;;;;;;;16.08;3.58;;;;;;;18.90;60.09;100801.72;5016181;28;20386;-74
2021/08/08 10:00:28;;;;;;;20.77;4.05;;;;;;;18.99;62.95;100814.88;5033934;28;20087;-74
2021/08/08 10:02:55;;;;;;;18.20;4.25;;;;;;;19.16;60.86;100818.09;5034568;28;20099;-74
2021/08/08 10:05:23;;;;;;;15.23;3.97;;;;;;;19.09;61.66;100819.91;5033784;28;20124;-74
2021/08/08 10:07:49;;;;;;;18.17;4.20;;;;;;;18.94;63.36;100832.66;5015930;28;20111;-74
2021/08/08 10:10:16;;;;;;;18.85;3.70;;;;;;;19.91;59.13;100822.91;5033876;28;20121;-74
2021/08/08 10:13:14;;;;;;;17.55;3.50;;;;;;;19.88;58.52;100831.44;5016023;28;20393;-73
2021/08/08 10:15:43;;;;;;;15.85;3.80;;;;;;;20.37;57.47;100832.22;4963211;28;20484;-73
2021/08/08 10:18:12;;;;;;;11.93;3.10;;;;;;;21.12;53.15;100824.00;5034841;28;20029;-72
2021/08/08 10:20:38;;;;;;;13.35;3.28;;;;;;;21.68;54.98;100817.28;5033989;28;20021;-74
2021/08/08 10:23:05;;;;;;;13.40;3.30;;;;;;;22.41;50.82;100809.84;5033934;28;20055;-78
2021/08/08 10:25:30;;;;;;;13.63;3.50;;;;;;;22.99;47.60;100830.50;5033853;28;20034;-73
2021/08/08 10:27:57;;;;;;;14.52;3.50;;;;;;;23.06;47.58;100826.69;5016163;28;20470;-73
2021/08/08 10:30:23;;;;;;;10.25;3.35;;;;;;;23.14;47.61;100825.59;5016009;28;20129;-75
2021/08/08 10:32:49;;;;;;;12.82;2.85;;;;;;;23.01;48.54;100828.41;5033870;28;20449;-71
2021/08/08 10:35:17;;;;;;;15.15;3.10;;;;;;;22.63;50.69;100830.16;5016019;28;20064;-78
2021/08/08 10:37:44;;;;;;;10.00;3.33;;;;;;;22.49;49.56;100826.69;5034027;28;20103;-74
2021/08/08 10:40:11;;;;;;;10.40;3.13;;;;;;;22.26;48.12;100831.78;5033667;28;20469;-74
2021/08/08 10:42:42;;;;;;;12.43;3.20;;;;;;;21.88;50.09;100843.44;5033670;28;20030;-72
2021/08/08 10:45:08;;;;;;;13.95;3.30;;;;;;;20.92;51.31;100842.94;5015900;28;20036;-73
2021/08/08 10:47:34;;;;;;;12.68;3.63;;;;;;;20.78;51.42;100842.13;5032890;28;20045;-72
2021/08/08 10:50:15;;;;;;;13.55;3.90;;;;;;;20.39;55.01;100849.06;5033339;28;20508;-73
2021/08/08 10:52:41;;;;;;;8.23;2.80;;;;;;;20.17;53.72;100846.50;5033196;28;20381;-73
2021/08/08 10:55:08;;;;;;;12.23;3.28;;;;;;;20.60;53.04;100846.22;5033428;28;20462;-73
2021/08/08 10:57:43;;;;;;;13.13;3.38;;;;;;;20.75;53.58;100835.25;5033088;28;20037;-73
2021/08/08 11:00:13;;;;;;;14.40;3.67;;;;;;;20.63;56.18;100850.38;5033203;28;20129;-74
2021/08/08 11:02:39;;;;;;;13.48;3.53;;;;;;;21.04;54.28;100848.56;5033087;28;20030;-74
2021/08/08 11:05:16;;;;;;;17.27;3.78;;;;;;;22.14;49.99;100843.34;5032817;28;20095;-73
2021/08/08 11:07:44;;;;;;;18.02;3.58;;;;;;;22.51;48.29;100835.47;5033089;28;20054;-73
2021/08/08 11:10:11;;;;;;;11.00;3.60;;;;;;;22.16;49.26;100838.53;5033361;28;20108;-72
2021/08/08 11:12:39;;;;;;;10.75;3.35;;;;;;;21.34;50.46;100848.13;5033171;28;20120;-72
2021/08/08 11:15:09;;;;;;;10.30;2.65;;;;;;;20.64;51.82;100857.44;5033175;28;20077;-72